sensor_id;sensor_type;location;lat;lon;timestamp;P1;durP1;ratioP1;P2;durP2;ratioP2
4533;SDS011;2279;51.448;7.306;2024-01-15T00:00:43;186.27;;;50.63;;
4533;SDS011;2279;51.448;7.306;2024-01-15T00:03:09;185.83;;;50.00;;
4533;SDS011;2279;51.448;7.306;2024-01-15T00:05:36;185.90;;;50.33;;
4533;SDS011;2279;51.448;7.306;2024-01-15T00:08:03;184.75;;;49.90;;
4533;SDS011;2279;51.448;7.306;2024-01-15T00:10:29;184.70;;;49.63;;
4533;SDS011;2279;51.448;7.306;2024-01-15T00:12:55;185.17;;;49.90;;
4533;SDS011;2279;51.448;7.306;2024-01-15T00:15:21;186.98;;;50.55;;
4533;SDS011;2279;51.448;7.306;2024-01-15T00:17:47;175.02;;;52.33;;
4533;SDS011;2279;51.448;7.306;2024-01-15T00:20:13;187.37;;;51.10;;
4533;SDS011;2279;51.448;7.306;2024-01-15T00:22:39;189.15;;;53.30;;
4533;SDS011;2279;51.448;7.306;2024-01-15T00:25:05;154.80;;;45.07;;
4533;SDS011;2279;51.448;7.306;2024-01-15T00:27:31;184.88;;;49.60;;
4533;SDS011;2279;51.448;7.306;2024-01-15T00:29:57;181.68;;;50.25;;
4533;SDS011;2279;51.448;7.306;2024-01-15T00:32:23;186.80;;;50.17;;
4533;SDS011;2279;51.448;7.306;2024-01-15T00:34:49;183.30;;;48.35;;
4533;SDS011;2279;51.448;7.306;2024-01-15T00:37:15;185.05;;;49.92;;
4533;SDS011;2279;51.448;7.306;2024-01-15T00:39:41;184.13;;;49.27;;
4533;SDS011;2279;51.448;7.306;2024-01-15T00:42:07;173.17;;;47.87;;
4533;SDS011;2279;51.448;7.306;2024-01-15T00:44:33;185.55;;;50.03;;
4533;SDS011;2279;51.448;7.306;2024-01-15T00:46:59;184.67;;;49.70;;
4533;SDS011;2279;51.448;7.306;2024-01-15T00:49:26;184.70;;;48.95;;
4533;SDS011;2279;51.448;7.306;2024-01-15T00:51:52;186.52;;;49.38;;
4533;SDS011;2279;51.448;7.306;2024-01-15T00:54:18;183.97;;;48.67;;
4533;SDS011;2279;51.448;7.306;2024-01-15T00:56:44;185.57;;;49.50;;
4533;SDS011;2279;51.448;7.306;2024-01-15T00:59:10;186.37;;;49.83;;
4533;SDS011;2279;51.448;7.306;2024-01-15T01:01:39;185.20;;;49.45;;
4533;SDS011;2279;51.448;7.306;2024-01-15T01:04:07;185.95;;;49.55;;
4533;SDS011;2279;51.448;7.306;2024-01-15T01:06:33;187.00;;;50.78;;
4533;SDS011;2279;51.448;7.306;2024-01-15T01:08:59;185.40;;;50.03;;
4533;SDS011;2279;51.448;7.306;2024-01-15T01:11:25;187.30;;;50.67;;
4533;SDS011;2279;51.448;7.306;2024-01-15T01:13:51;186.98;;;50.35;;
4533;SDS011;2279;51.448;7.306;2024-01-15T01:16:17;186.27;;;50.30;;
4533;SDS011;2279;51.448;7.306;2024-01-15T01:18:43;186.97;;;50.27;;
4533;SDS011;2279;51.448;7.306;2024-01-15T01:21:09;186.90;;;50.43;;
4533;SDS011;2279;51.448;7.306;2024-01-15T01:23:35;136.77;;;39.17;;
4533;SDS011;2279;51.448;7.306;2024-01-15T01:26:01;120.82;;;34.92;;
4533;SDS011;2279;51.448;7.306;2024-01-15T01:28:27;11.20;;;10.20;;
4533;SDS011;2279;51.448;7.306;2024-01-15T01:30:53;9.40;;;8.45;;
4533;SDS011;2279;51.448;7.306;2024-01-15T01:33:19;10.83;;;9.73;;
4533;SDS011;2279;51.448;7.306;2024-01-15T01:35:45;8.65;;;7.65;;
4533;SDS011;2279;51.448;7.306;2024-01-15T01:38:12;9.02;;;8.05;;
4533;SDS011;2279;51.448;7.306;2024-01-15T01:40:38;9.27;;;8.32;;
4533;SDS011;2279;51.448;7.306;2024-01-15T01:43:08;8.63;;;7.82;;
4533;SDS011;2279;51.448;7.306;2024-01-15T01:45:35;9.27;;;8.05;;
4533;SDS011;2279;51.448;7.306;2024-01-15T01:48:01;10.70;;;9.70;;
4533;SDS011;2279;51.448;7.306;2024-01-15T01:50:28;10.23;;;9.20;;
4533;SDS011;2279;51.448;7.306;2024-01-15T01:52:54;9.57;;;8.57;;
4533;SDS011;2279;51.448;7.306;2024-01-15T01:55:21;10.30;;;9.30;;
4533;SDS011;2279;51.448;7.306;2024-01-15T01:57:47;11.88;;;10.77;;
4533;SDS011;2279;51.448;7.306;2024-01-15T02:00:13;9.40;;;8.50;;
4533;SDS011;2279;51.448;7.306;2024-01-15T02:02:40;14.30;;;12.90;;
4533;SDS011;2279;51.448;7.306;2024-01-15T02:05:06;9.73;;;8.73;;
4533;SDS011;2279;51.448;7.306;2024-01-15T02:07:34;10.63;;;9.63;;
4533;SDS011;2279;51.448;7.306;2024-01-15T02:10:00;11.52;;;10.38;;
4533;SDS011;2279;51.448;7.306;2024-01-15T02:12:26;11.07;;;9.97;;
4533;SDS011;2279;51.448;7.306;2024-01-15T02:14:52;10.18;;;9.25;;
4533;SDS011;2279;51.448;7.306;2024-01-15T02:17:18;10.20;;;9.20;;
4533;SDS011;2279;51.448;7.306;2024-01-15T02:19:44;11.77;;;10.67;;
4533;SDS011;2279;51.448;7.306;2024-01-15T02:22:10;10.20;;;9.20;;
4533;SDS011;2279;51.448;7.306;2024-01-15T02:24:36;11.80;;;10.60;;
4533;SDS011;2279;51.448;7.306;2024-01-15T02:27:02;12.70;;;11.60;;
4533;SDS011;2279;51.448;7.306;2024-01-15T02:29:28;10.45;;;9.50;;
4533;SDS011;2279;51.448;7.306;2024-01-15T02:31:54;11.20;;;10.20;;
4533;SDS011;2279;51.448;7.306;2024-01-15T02:34:20;11.88;;;10.80;;
4533;SDS011;2279;51.448;7.306;2024-01-15T02:36:46;11.27;;;10.23;;
4533;SDS011;2279;51.448;7.306;2024-01-15T02:39:12;11.53;;;10.53;;
4533;SDS011;2279;51.448;7.306;2024-01-15T02:41:38;11.05;;;9.95;;
4533;SDS011;2279;51.448;7.306;2024-01-15T02:44:04;11.03;;;9.93;;
4533;SDS011;2279;51.448;7.306;2024-01-15T02:46:32;10.60;;;9.60;;
4533;SDS011;2279;51.448;7.306;2024-01-15T02:48:58;14.02;;;12.82;;
4533;SDS011;2279;51.448;7.306;2024-01-15T02:51:23;20.33;;;19.13;;
4533;SDS011;2279;51.448;7.306;2024-01-15T02:53:50;12.57;;;11.53;;
4533;SDS011;2279;51.448;7.306;2024-01-15T02:56:16;20.98;;;19.67;;
4533;SDS011;2279;51.448;7.306;2024-01-15T02:58:41;29.30;;;27.57;;
4533;SDS011;2279;51.448;7.306;2024-01-15T03:01:07;26.23;;;24.80;;
4533;SDS011;2279;51.448;7.306;2024-01-15T03:03:33;27.27;;;25.73;;
4533;SDS011;2279;51.448;7.306;2024-01-15T03:05:59;33.27;;;31.07;;
4533;SDS011;2279;51.448;7.306;2024-01-15T03:08:26;32.40;;;30.50;;
4533;SDS011;2279;51.448;7.306;2024-01-15T03:10:54;31.90;;;30.10;;
4533;SDS011;2279;51.448;7.306;2024-01-15T03:13:20;33.57;;;31.57;;
4533;SDS011;2279;51.448;7.306;2024-01-15T03:15:47;35.85;;;33.53;;
4533;SDS011;2279;51.448;7.306;2024-01-15T03:18:13;21.33;;;20.00;;
4533;SDS011;2279;51.448;7.306;2024-01-15T03:20:39;14.20;;;13.20;;
4533;SDS011;2279;51.448;7.306;2024-01-15T03:23:05;16.30;;;15.00;;
4533;SDS011;2279;51.448;7.306;2024-01-15T03:25:31;16.85;;;15.75;;
4533;SDS011;2279;51.448;7.306;2024-01-15T03:27:57;15.60;;;14.50;;
4533;SDS011;2279;51.448;7.306;2024-01-15T03:30:23;12.40;;;11.50;;
4533;SDS011;2279;51.448;7.306;2024-01-15T03:32:49;14.83;;;13.53;;
4533;SDS011;2279;51.448;7.306;2024-01-15T03:35:15;10.90;;;9.85;;
4533;SDS011;2279;51.448;7.306;2024-01-15T03:37:41;13.15;;;12.00;;
4533;SDS011;2279;51.448;7.306;2024-01-15T03:40:07;10.20;;;9.20;;
4533;SDS011;2279;51.448;7.306;2024-01-15T03:42:33;16.98;;;15.18;;
4533;SDS011;2279;51.448;7.306;2024-01-15T03:44:59;10.50;;;9.53;;
4533;SDS011;2279;51.448;7.306;2024-01-15T03:47:26;11.07;;;10.03;;
4533;SDS011;2279;51.448;7.306;2024-01-15T03:49:51;12.82;;;11.77;;
4533;SDS011;2279;51.448;7.306;2024-01-15T03:52:17;17.50;;;16.30;;
4533;SDS011;2279;51.448;7.306;2024-01-15T03:54:43;8.60;;;7.80;;
4533;SDS011;2279;51.448;7.306;2024-01-15T03:57:09;8.17;;;6.87;;
4533;SDS011;2279;51.448;7.306;2024-01-15T03:59:35;8.33;;;7.33;;
4533;SDS011;2279;51.448;7.306;2024-01-15T04:02:02;9.23;;;8.33;;
4533;SDS011;2279;51.448;7.306;2024-01-15T04:04:29;8.93;;;8.00;;
4533;SDS011;2279;51.448;7.306;2024-01-15T04:06:54;10.03;;;9.00;;
4533;SDS011;2279;51.448;7.306;2024-01-15T04:09:20;8.93;;;8.10;;
4533;SDS011;2279;51.448;7.306;2024-01-15T04:11:46;14.07;;;12.93;;
4533;SDS011;2279;51.448;7.306;2024-01-15T04:14:12;20.07;;;18.63;;
4533;SDS011;2279;51.448;7.306;2024-01-15T04:16:38;18.53;;;17.37;;
4533;SDS011;2279;51.448;7.306;2024-01-15T04:19:04;21.40;;;20.23;;
4533;SDS011;2279;51.448;7.306;2024-01-15T04:21:30;24.33;;;22.93;;
4533;SDS011;2279;51.448;7.306;2024-01-15T04:23:56;32.42;;;30.33;;
4533;SDS011;2279;51.448;7.306;2024-01-15T04:26:22;38.10;;;34.97;;
4533;SDS011;2279;51.448;7.306;2024-01-15T04:28:48;39.50;;;35.77;;
4533;SDS011;2279;51.448;7.306;2024-01-15T04:31:24;37.00;;;34.35;;
4533;SDS011;2279;51.448;7.306;2024-01-15T04:33:50;31.75;;;29.77;;
4533;SDS011;2279;51.448;7.306;2024-01-15T04:36:16;37.13;;;34.55;;
4533;SDS011;2279;51.448;7.306;2024-01-15T04:38:42;34.78;;;32.45;;
4533;SDS011;2279;51.448;7.306;2024-01-15T04:41:14;11.23;;;10.17;;
4533;SDS011;2279;51.448;7.306;2024-01-15T04:43:41;14.73;;;13.43;;
4533;SDS011;2279;51.448;7.306;2024-01-15T04:46:07;8.40;;;7.17;;
4533;SDS011;2279;51.448;7.306;2024-01-15T04:48:33;9.20;;;8.30;;
4533;SDS011;2279;51.448;7.306;2024-01-15T04:50:59;9.50;;;8.55;;
4533;SDS011;2279;51.448;7.306;2024-01-15T04:53:25;11.98;;;10.75;;
4533;SDS011;2279;51.448;7.306;2024-01-15T04:55:51;9.77;;;8.90;;
4533;SDS011;2279;51.448;7.306;2024-01-15T04:58:17;9.38;;;8.57;;
4533;SDS011;2279;51.448;7.306;2024-01-15T05:00:43;8.93;;;8.27;;
4533;SDS011;2279;51.448;7.306;2024-01-15T05:03:09;15.37;;;14.27;;
4533;SDS011;2279;51.448;7.306;2024-01-15T05:05:35;18.05;;;16.90;;
4533;SDS011;2279;51.448;7.306;2024-01-15T05:08:01;28.42;;;26.73;;
4533;SDS011;2279;51.448;7.306;2024-01-15T05:10:27;12.27;;;11.33;;
4533;SDS011;2279;51.448;7.306;2024-01-15T05:12:53;18.43;;;17.13;;
4533;SDS011;2279;51.448;7.306;2024-01-15T05:15:19;38.03;;;35.00;;
4533;SDS011;2279;51.448;7.306;2024-01-15T05:17:45;16.13;;;15.03;;
4533;SDS011;2279;51.448;7.306;2024-01-15T05:20:11;10.60;;;9.70;;
4533;SDS011;2279;51.448;7.306;2024-01-15T05:22:36;19.83;;;18.13;;
4533;SDS011;2279;51.448;7.306;2024-01-15T05:25:03;12.50;;;11.63;;
4533;SDS011;2279;51.448;7.306;2024-01-15T05:27:29;33.42;;;28.63;;
4533;SDS011;2279;51.448;7.306;2024-01-15T05:29:55;37.07;;;33.30;;
4533;SDS011;2279;51.448;7.306;2024-01-15T05:32:22;31.50;;;28.42;;
4533;SDS011;2279;51.448;7.306;2024-01-15T05:34:48;10.00;;;9.10;;
4533;SDS011;2279;51.448;7.306;2024-01-15T05:37:14;23.43;;;22.00;;
4533;SDS011;2279;51.448;7.306;2024-01-15T05:39:40;11.30;;;10.23;;
4533;SDS011;2279;51.448;7.306;2024-01-15T05:42:06;12.53;;;11.63;;
4533;SDS011;2279;51.448;7.306;2024-01-15T05:44:32;19.87;;;18.67;;
4533;SDS011;2279;51.448;7.306;2024-01-15T05:46:58;33.87;;;30.03;;
4533;SDS011;2279;51.448;7.306;2024-01-15T05:49:24;19.90;;;18.60;;
4533;SDS011;2279;51.448;7.306;2024-01-15T05:51:50;20.48;;;19.25;;
4533;SDS011;2279;51.448;7.306;2024-01-15T05:54:17;28.07;;;26.40;;
4533;SDS011;2279;51.448;7.306;2024-01-15T05:56:42;41.05;;;37.35;;
4533;SDS011;2279;51.448;7.306;2024-01-15T05:59:10;40.97;;;37.03;;
4533;SDS011;2279;51.448;7.306;2024-01-15T06:01:36;46.30;;;38.80;;
4533;SDS011;2279;51.448;7.306;2024-01-15T06:04:02;39.47;;;35.23;;
4533;SDS011;2279;51.448;7.306;2024-01-15T06:06:28;46.80;;;39.33;;
4533;SDS011;2279;51.448;7.306;2024-01-15T06:08:54;46.20;;;40.97;;
4533;SDS011;2279;51.448;7.306;2024-01-15T06:11:20;48.87;;;40.67;;
4533;SDS011;2279;51.448;7.306;2024-01-15T06:13:46;49.13;;;39.43;;
4533;SDS011;2279;51.448;7.306;2024-01-15T06:16:15;37.87;;;33.73;;
4533;SDS011;2279;51.448;7.306;2024-01-15T06:18:41;44.88;;;39.35;;
4533;SDS011;2279;51.448;7.306;2024-01-15T06:21:07;45.60;;;39.83;;
4533;SDS011;2279;51.448;7.306;2024-01-15T06:23:35;45.17;;;39.00;;
4533;SDS011;2279;51.448;7.306;2024-01-15T06:26:01;44.20;;;33.73;;
4533;SDS011;2279;51.448;7.306;2024-01-15T06:28:28;21.90;;;20.45;;
4533;SDS011;2279;51.448;7.306;2024-01-15T06:30:54;32.42;;;30.25;;
4533;SDS011;2279;51.448;7.306;2024-01-15T06:33:20;26.60;;;23.77;;
4533;SDS011;2279;51.448;7.306;2024-01-15T06:35:46;32.43;;;30.07;;
4533;SDS011;2279;51.448;7.306;2024-01-15T06:38:12;41.58;;;37.95;;
4533;SDS011;2279;51.448;7.306;2024-01-15T06:40:38;41.03;;;37.03;;
4533;SDS011;2279;51.448;7.306;2024-01-15T06:43:10;38.92;;;35.30;;
4533;SDS011;2279;51.448;7.306;2024-01-15T06:45:36;34.37;;;27.57;;
4533;SDS011;2279;51.448;7.306;2024-01-15T06:48:02;54.27;;;31.10;;
4533;SDS011;2279;51.448;7.306;2024-01-15T06:50:28;46.40;;;28.98;;
4533;SDS011;2279;51.448;7.306;2024-01-15T06:52:54;36.03;;;28.73;;
4533;SDS011;2279;51.448;7.306;2024-01-15T06:55:20;31.93;;;25.10;;
4533;SDS011;2279;51.448;7.306;2024-01-15T06:57:46;34.88;;;26.95;;
4533;SDS011;2279;51.448;7.306;2024-01-15T07:00:12;30.70;;;23.73;;
4533;SDS011;2279;51.448;7.306;2024-01-15T07:02:38;20.60;;;18.45;;
4533;SDS011;2279;51.448;7.306;2024-01-15T07:05:04;28.83;;;25.80;;
4533;SDS011;2279;51.448;7.306;2024-01-15T07:07:30;16.88;;;15.05;;
4533;SDS011;2279;51.448;7.306;2024-01-15T07:09:56;29.50;;;24.38;;
4533;SDS011;2279;51.448;7.306;2024-01-15T07:12:22;31.52;;;26.38;;
4533;SDS011;2279;51.448;7.306;2024-01-15T07:14:48;24.42;;;20.17;;
4533;SDS011;2279;51.448;7.306;2024-01-15T07:17:15;37.25;;;27.90;;
4533;SDS011;2279;51.448;7.306;2024-01-15T07:19:41;41.50;;;33.45;;
4533;SDS011;2279;51.448;7.306;2024-01-15T07:22:07;52.00;;;28.95;;
4533;SDS011;2279;51.448;7.306;2024-01-15T07:24:32;56.70;;;32.27;;
4533;SDS011;2279;51.448;7.306;2024-01-15T07:27:00;67.95;;;32.53;;
4533;SDS011;2279;51.448;7.306;2024-01-15T07:29:26;81.57;;;33.35;;
4533;SDS011;2279;51.448;7.306;2024-01-15T07:31:51;67.07;;;31.37;;
4533;SDS011;2279;51.448;7.306;2024-01-15T07:34:18;115.90;;;41.53;;
4533;SDS011;2279;51.448;7.306;2024-01-15T07:36:44;121.30;;;43.97;;
4533;SDS011;2279;51.448;7.306;2024-01-15T07:39:10;74.93;;;32.90;;
4533;SDS011;2279;51.448;7.306;2024-01-15T07:41:36;120.38;;;42.90;;
4533;SDS011;2279;51.448;7.306;2024-01-15T07:44:02;102.00;;;40.50;;
4533;SDS011;2279;51.448;7.306;2024-01-15T07:46:28;91.28;;;41.28;;
4533;SDS011;2279;51.448;7.306;2024-01-15T07:48:54;42.50;;;23.20;;
4533;SDS011;2279;51.448;7.306;2024-01-15T07:51:22;116.43;;;43.33;;
4533;SDS011;2279;51.448;7.306;2024-01-15T07:53:48;83.70;;;33.20;;
4533;SDS011;2279;51.448;7.306;2024-01-15T07:56:14;51.63;;;39.83;;
4533;SDS011;2279;51.448;7.306;2024-01-15T07:58:41;52.13;;;42.90;;
4533;SDS011;2279;51.448;7.306;2024-01-15T08:01:07;46.03;;;33.33;;
4533;SDS011;2279;51.448;7.306;2024-01-15T08:03:33;21.45;;;17.88;;
4533;SDS011;2279;51.448;7.306;2024-01-15T08:05:59;21.42;;;19.33;;
4533;SDS011;2279;51.448;7.306;2024-01-15T08:08:25;23.67;;;21.30;;
4533;SDS011;2279;51.448;7.306;2024-01-15T08:10:54;89.95;;;33.75;;
4533;SDS011;2279;51.448;7.306;2024-01-15T08:13:20;51.28;;;23.20;;
4533;SDS011;2279;51.448;7.306;2024-01-15T08:15:46;135.50;;;46.88;;
4533;SDS011;2279;51.448;7.306;2024-01-15T08:18:12;27.48;;;23.95;;
4533;SDS011;2279;51.448;7.306;2024-01-15T08:20:38;98.23;;;37.50;;
4533;SDS011;2279;51.448;7.306;2024-01-15T08:23:04;71.18;;;32.33;;
4533;SDS011;2279;51.448;7.306;2024-01-15T08:25:30;102.38;;;38.17;;
4533;SDS011;2279;51.448;7.306;2024-01-15T08:27:56;29.03;;;22.73;;
4533;SDS011;2279;51.448;7.306;2024-01-15T08:30:23;119.00;;;43.45;;
4533;SDS011;2279;51.448;7.306;2024-01-15T08:32:55;126.07;;;44.72;;
4533;SDS011;2279;51.448;7.306;2024-01-15T08:35:21;139.63;;;46.38;;
4533;SDS011;2279;51.448;7.306;2024-01-15T08:37:51;145.77;;;47.17;;
4533;SDS011;2279;51.448;7.306;2024-01-15T08:40:18;68.45;;;35.95;;
4533;SDS011;2279;51.448;7.306;2024-01-15T08:42:44;28.08;;;22.65;;
4533;SDS011;2279;51.448;7.306;2024-01-15T08:45:14;62.05;;;31.38;;
4533;SDS011;2279;51.448;7.306;2024-01-15T08:47:40;97.40;;;39.17;;
4533;SDS011;2279;51.448;7.306;2024-01-15T08:50:06;127.93;;;43.80;;
4533;SDS011;2279;51.448;7.306;2024-01-15T08:52:35;142.25;;;51.95;;
4533;SDS011;2279;51.448;7.306;2024-01-15T08:55:01;145.18;;;45.78;;
4533;SDS011;2279;51.448;7.306;2024-01-15T08:57:27;140.20;;;45.73;;
4533;SDS011;2279;51.448;7.306;2024-01-15T08:59:53;137.77;;;45.00;;
4533;SDS011;2279;51.448;7.306;2024-01-15T09:02:19;144.35;;;45.75;;
4533;SDS011;2279;51.448;7.306;2024-01-15T09:04:45;147.40;;;45.80;;
4533;SDS011;2279;51.448;7.306;2024-01-15T09:07:11;149.30;;;46.50;;
4533;SDS011;2279;51.448;7.306;2024-01-15T09:09:37;154.00;;;47.50;;
4533;SDS011;2279;51.448;7.306;2024-01-15T09:12:03;166.63;;;48.47;;
4533;SDS011;2279;51.448;7.306;2024-01-15T09:14:29;137.75;;;45.88;;
4533;SDS011;2279;51.448;7.306;2024-01-15T09:16:55;153.30;;;46.63;;
4533;SDS011;2279;51.448;7.306;2024-01-15T09:19:22;137.75;;;45.97;;
4533;SDS011;2279;51.448;7.306;2024-01-15T09:21:48;152.05;;;47.20;;
4533;SDS011;2279;51.448;7.306;2024-01-15T09:24:14;149.73;;;47.57;;
4533;SDS011;2279;51.448;7.306;2024-01-15T09:26:39;159.63;;;49.03;;
4533;SDS011;2279;51.448;7.306;2024-01-15T09:29:05;160.70;;;48.03;;
4533;SDS011;2279;51.448;7.306;2024-01-15T09:31:31;159.65;;;48.88;;
4533;SDS011;2279;51.448;7.306;2024-01-15T09:33:57;162.13;;;48.57;;
4533;SDS011;2279;51.448;7.306;2024-01-15T09:36:25;167.80;;;50.60;;
4533;SDS011;2279;51.448;7.306;2024-01-15T09:38:51;155.73;;;49.17;;
4533;SDS011;2279;51.448;7.306;2024-01-15T09:41:17;144.17;;;46.10;;
4533;SDS011;2279;51.448;7.306;2024-01-15T09:43:49;137.23;;;47.03;;
4533;SDS011;2279;51.448;7.306;2024-01-15T09:46:16;139.63;;;47.10;;
4533;SDS011;2279;51.448;7.306;2024-01-15T09:48:43;145.32;;;47.85;;
4533;SDS011;2279;51.448;7.306;2024-01-15T09:51:08;170.60;;;52.90;;
4533;SDS011;2279;51.448;7.306;2024-01-15T09:53:35;158.32;;;49.65;;
4533;SDS011;2279;51.448;7.306;2024-01-15T09:56:02;152.38;;;48.35;;
4533;SDS011;2279;51.448;7.306;2024-01-15T09:58:28;144.43;;;47.78;;
4533;SDS011;2279;51.448;7.306;2024-01-15T10:00:55;155.13;;;46.70;;
4533;SDS011;2279;51.448;7.306;2024-01-15T10:03:22;128.65;;;44.80;;
4533;SDS011;2279;51.448;7.306;2024-01-15T10:05:48;127.93;;;56.57;;
4533;SDS011;2279;51.448;7.306;2024-01-15T10:08:16;132.93;;;44.67;;
4533;SDS011;2279;51.448;7.306;2024-01-15T10:10:42;155.68;;;48.40;;
4533;SDS011;2279;51.448;7.306;2024-01-15T10:13:08;156.13;;;46.80;;
4533;SDS011;2279;51.448;7.306;2024-01-15T10:15:34;160.15;;;46.97;;
4533;SDS011;2279;51.448;7.306;2024-01-15T10:18:03;159.95;;;48.10;;
4533;SDS011;2279;51.448;7.306;2024-01-15T10:20:31;142.23;;;46.00;;
4533;SDS011;2279;51.448;7.306;2024-01-15T10:22:57;155.95;;;48.38;;
4533;SDS011;2279;51.448;7.306;2024-01-15T10:25:23;157.68;;;48.47;;
4533;SDS011;2279;51.448;7.306;2024-01-15T10:28:00;134.68;;;46.00;;
4533;SDS011;2279;51.448;7.306;2024-01-15T10:30:26;51.28;;;33.97;;
4533;SDS011;2279;51.448;7.306;2024-01-15T10:32:59;96.67;;;35.37;;
4533;SDS011;2279;51.448;7.306;2024-01-15T10:35:26;96.70;;;40.97;;
4533;SDS011;2279;51.448;7.306;2024-01-15T10:37:52;32.83;;;29.52;;
4533;SDS011;2279;51.448;7.306;2024-01-15T10:40:18;84.03;;;33.85;;
4533;SDS011;2279;51.448;7.306;2024-01-15T10:42:44;146.93;;;49.95;;
4533;SDS011;2279;51.448;7.306;2024-01-15T10:45:12;115.40;;;44.28;;
4533;SDS011;2279;51.448;7.306;2024-01-15T10:47:38;113.03;;;44.72;;
4533;SDS011;2279;51.448;7.306;2024-01-15T10:50:05;72.40;;;39.75;;
4533;SDS011;2279;51.448;7.306;2024-01-15T10:52:33;152.85;;;54.10;;
4533;SDS011;2279;51.448;7.306;2024-01-15T10:54:59;56.10;;;35.25;;
4533;SDS011;2279;51.448;7.306;2024-01-15T10:57:26;61.80;;;39.33;;
4533;SDS011;2279;51.448;7.306;2024-01-15T10:59:52;153.73;;;46.97;;
4533;SDS011;2279;51.448;7.306;2024-01-15T11:02:17;162.23;;;49.17;;
4533;SDS011;2279;51.448;7.306;2024-01-15T11:04:43;116.47;;;46.15;;
4533;SDS011;2279;51.448;7.306;2024-01-15T11:07:09;113.90;;;44.80;;
4533;SDS011;2279;51.448;7.306;2024-01-15T11:09:37;160.60;;;49.95;;
4533;SDS011;2279;51.448;7.306;2024-01-15T11:12:07;160.48;;;49.08;;
4533;SDS011;2279;51.448;7.306;2024-01-15T11:14:45;149.48;;;47.22;;
4533;SDS011;2279;51.448;7.306;2024-01-15T11:17:11;159.55;;;50.10;;
4533;SDS011;2279;51.448;7.306;2024-01-15T11:22:08;161.32;;;49.15;;
4533;SDS011;2279;51.448;7.306;2024-01-15T11:27:03;161.25;;;48.38;;
4533;SDS011;2279;51.448;7.306;2024-01-15T11:29:30;163.90;;;50.97;;
4533;SDS011;2279;51.448;7.306;2024-01-15T11:37:08;162.45;;;50.47;;
4533;SDS011;2279;51.448;7.306;2024-01-15T11:39:40;166.60;;;52.20;;
4533;SDS011;2279;51.448;7.306;2024-01-15T11:42:10;165.00;;;51.85;;
4533;SDS011;2279;51.448;7.306;2024-01-15T11:44:37;164.65;;;50.85;;
4533;SDS011;2279;51.448;7.306;2024-01-15T11:47:04;167.18;;;51.05;;
4533;SDS011;2279;51.448;7.306;2024-01-15T11:52:18;165.75;;;51.13;;
4533;SDS011;2279;51.448;7.306;2024-01-15T11:54:46;161.88;;;49.65;;
4533;SDS011;2279;51.448;7.306;2024-01-15T11:57:16;165.10;;;51.28;;
4533;SDS011;2279;51.448;7.306;2024-01-15T11:59:44;167.23;;;51.03;;
4533;SDS011;2279;51.448;7.306;2024-01-15T12:02:10;145.13;;;56.42;;
4533;SDS011;2279;51.448;7.306;2024-01-15T12:04:38;167.98;;;53.00;;
4533;SDS011;2279;51.448;7.306;2024-01-15T12:07:04;169.00;;;51.00;;
4533;SDS011;2279;51.448;7.306;2024-01-15T12:09:30;170.23;;;51.80;;
4533;SDS011;2279;51.448;7.306;2024-01-15T12:12:02;169.57;;;52.27;;
4533;SDS011;2279;51.448;7.306;2024-01-15T12:14:31;169.70;;;53.28;;
4533;SDS011;2279;51.448;7.306;2024-01-15T12:16:57;169.55;;;51.42;;
4533;SDS011;2279;51.448;7.306;2024-01-15T12:19:23;171.13;;;54.05;;
4533;SDS011;2279;51.448;7.306;2024-01-15T12:21:50;169.10;;;53.63;;
4533;SDS011;2279;51.448;7.306;2024-01-15T12:24:17;171.00;;;53.78;;
4533;SDS011;2279;51.448;7.306;2024-01-15T12:26:43;171.40;;;52.65;;
4533;SDS011;2279;51.448;7.306;2024-01-15T12:29:10;166.25;;;51.53;;
4533;SDS011;2279;51.448;7.306;2024-01-15T12:31:36;165.18;;;51.20;;
4533;SDS011;2279;51.448;7.306;2024-01-15T12:34:02;164.10;;;51.47;;
4533;SDS011;2279;51.448;7.306;2024-01-15T12:36:31;161.85;;;49.45;;
4533;SDS011;2279;51.448;7.306;2024-01-15T12:39:00;164.95;;;52.75;;
4533;SDS011;2279;51.448;7.306;2024-01-15T12:41:27;165.90;;;52.35;;
4533;SDS011;2279;51.448;7.306;2024-01-15T12:43:53;159.37;;;50.40;;
4533;SDS011;2279;51.448;7.306;2024-01-15T12:46:19;160.70;;;50.15;;
4533;SDS011;2279;51.448;7.306;2024-01-15T12:48:45;161.00;;;51.08;;
4533;SDS011;2279;51.448;7.306;2024-01-15T12:51:11;163.97;;;51.53;;
4533;SDS011;2279;51.448;7.306;2024-01-15T12:53:37;179.20;;;68.93;;
4533;SDS011;2279;51.448;7.306;2024-01-15T12:56:03;166.05;;;53.67;;
4533;SDS011;2279;51.448;7.306;2024-01-15T12:58:29;163.25;;;51.85;;
4533;SDS011;2279;51.448;7.306;2024-01-15T13:00:55;164.50;;;51.57;;
4533;SDS011;2279;51.448;7.306;2024-01-15T13:03:22;162.35;;;51.00;;
4533;SDS011;2279;51.448;7.306;2024-01-15T13:05:48;162.77;;;50.08;;
4533;SDS011;2279;51.448;7.306;2024-01-15T13:08:14;165.20;;;50.40;;
4533;SDS011;2279;51.448;7.306;2024-01-15T13:10:40;163.43;;;51.30;;
4533;SDS011;2279;51.448;7.306;2024-01-15T13:13:07;162.88;;;50.55;;
4533;SDS011;2279;51.448;7.306;2024-01-15T13:15:33;163.10;;;51.45;;
4533;SDS011;2279;51.448;7.306;2024-01-15T13:17:59;162.97;;;50.50;;
4533;SDS011;2279;51.448;7.306;2024-01-15T13:20:25;165.25;;;50.33;;
4533;SDS011;2279;51.448;7.306;2024-01-15T13:22:51;166.60;;;50.67;;
4533;SDS011;2279;51.448;7.306;2024-01-15T13:25:17;165.27;;;49.17;;
4533;SDS011;2279;51.448;7.306;2024-01-15T13:27:43;159.03;;;49.77;;
4533;SDS011;2279;51.448;7.306;2024-01-15T13:30:09;160.85;;;50.45;;
4533;SDS011;2279;51.448;7.306;2024-01-15T13:32:36;166.25;;;56.67;;
4533;SDS011;2279;51.448;7.306;2024-01-15T13:35:02;162.57;;;50.60;;
4533;SDS011;2279;51.448;7.306;2024-01-15T13:37:31;162.30;;;50.15;;
4533;SDS011;2279;51.448;7.306;2024-01-15T13:39:57;162.33;;;50.73;;
4533;SDS011;2279;51.448;7.306;2024-01-15T13:42:23;165.07;;;50.57;;
4533;SDS011;2279;51.448;7.306;2024-01-15T13:44:52;166.13;;;52.38;;
4533;SDS011;2279;51.448;7.306;2024-01-15T13:47:18;163.67;;;51.47;;
4533;SDS011;2279;51.448;7.306;2024-01-15T13:49:44;167.20;;;53.00;;
4533;SDS011;2279;51.448;7.306;2024-01-15T13:52:10;168.60;;;52.70;;
4533;SDS011;2279;51.448;7.306;2024-01-15T13:54:36;169.55;;;52.72;;
4533;SDS011;2279;51.448;7.306;2024-01-15T13:57:01;169.13;;;51.63;;
4533;SDS011;2279;51.448;7.306;2024-01-15T13:59:27;166.07;;;51.37;;
4533;SDS011;2279;51.448;7.306;2024-01-15T14:01:53;169.07;;;52.67;;
4533;SDS011;2279;51.448;7.306;2024-01-15T14:04:19;168.77;;;51.90;;
4533;SDS011;2279;51.448;7.306;2024-01-15T14:06:45;171.63;;;52.83;;
4533;SDS011;2279;51.448;7.306;2024-01-15T14:09:11;172.13;;;51.83;;
4533;SDS011;2279;51.448;7.306;2024-01-15T14:11:39;171.45;;;52.25;;
4533;SDS011;2279;51.448;7.306;2024-01-15T14:14:05;171.40;;;51.17;;
4533;SDS011;2279;51.448;7.306;2024-01-15T14:16:32;172.82;;;52.63;;
4533;SDS011;2279;51.448;7.306;2024-01-15T14:18:58;171.57;;;51.85;;
4533;SDS011;2279;51.448;7.306;2024-01-15T14:21:27;172.05;;;52.05;;
4533;SDS011;2279;51.448;7.306;2024-01-15T14:23:53;175.00;;;54.93;;
4533;SDS011;2279;51.448;7.306;2024-01-15T14:26:19;174.00;;;51.50;;
4533;SDS011;2279;51.448;7.306;2024-01-15T14:28:45;173.97;;;52.60;;
4533;SDS011;2279;51.448;7.306;2024-01-15T14:31:12;171.52;;;50.90;;
4533;SDS011;2279;51.448;7.306;2024-01-15T14:33:38;172.90;;;52.10;;
4533;SDS011;2279;51.448;7.306;2024-01-15T14:36:04;158.32;;;51.00;;
4533;SDS011;2279;51.448;7.306;2024-01-15T14:38:30;163.25;;;51.22;;
4533;SDS011;2279;51.448;7.306;2024-01-15T14:40:56;170.70;;;51.47;;
4533;SDS011;2279;51.448;7.306;2024-01-15T14:43:22;166.10;;;50.40;;
4533;SDS011;2279;51.448;7.306;2024-01-15T14:45:48;166.27;;;50.10;;
4533;SDS011;2279;51.448;7.306;2024-01-15T14:48:14;167.32;;;50.10;;
4533;SDS011;2279;51.448;7.306;2024-01-15T14:50:40;168.07;;;49.63;;